sensor_id;sensor_type;location;lat;lon;timestamp;P1;durP1;ratioP1;P2;durP2;ratioP2
6642;SDS011;3357;48.050;7.800;2022-07-22T00:02:20;13.00;;;5.40;;
6642;SDS011;3357;48.050;7.800;2022-07-22T00:04:45;6.03;;;4.77;;
6642;SDS011;3357;48.050;7.800;2022-07-22T00:07:10;5.43;;;4.97;;
6642;SDS011;3357;48.050;7.800;2022-07-22T00:09:36;4.13;;;3.83;;
6642;SDS011;3357;48.050;7.800;2022-07-22T00:12:01;5.00;;;4.60;;
6642;SDS011;3357;48.050;7.800;2022-07-22T00:14:26;6.93;;;4.90;;
6642;SDS011;3357;48.050;7.800;2022-07-22T00:16:52;4.50;;;4.10;;
6642;SDS011;3357;48.050;7.800;2022-07-22T00:19:17;5.67;;;5.13;;
6642;SDS011;3357;48.050;7.800;2022-07-22T00:21:42;5.17;;;4.67;;
6642;SDS011;3357;48.050;7.800;2022-07-22T00:24:08;4.90;;;4.27;;
6642;SDS011;3357;48.050;7.800;2022-07-22T00:26:33;4.83;;;4.43;;
6642;SDS011;3357;48.050;7.800;2022-07-22T00:28:59;5.47;;;5.07;;
6642;SDS011;3357;48.050;7.800;2022-07-22T00:31:24;6.60;;;5.07;;
6642;SDS011;3357;48.050;7.800;2022-07-22T00:33:49;10.90;;;4.70;;
6642;SDS011;3357;48.050;7.800;2022-07-22T00:36:14;4.50;;;4.10;;
6642;SDS011;3357;48.050;7.800;2022-07-22T00:38:40;6.70;;;4.70;;
6642;SDS011;3357;48.050;7.800;2022-07-22T00:41:05;5.43;;;4.90;;
6642;SDS011;3357;48.050;7.800;2022-07-22T00:46:14;4.97;;;4.57;;
6642;SDS011;3357;48.050;7.800;2022-07-22T00:48:40;7.30;;;5.00;;
6642;SDS011;3357;48.050;7.800;2022-07-22T00:51:05;5.27;;;4.77;;
6642;SDS011;3357;48.050;7.800;2022-07-22T00:53:30;6.13;;;4.70;;
6642;SDS011;3357;48.050;7.800;2022-07-22T00:55:56;4.33;;;4.03;;
6642;SDS011;3357;48.050;7.800;2022-07-22T00:58:21;6.10;;;5.33;;
6642;SDS011;3357;48.050;7.800;2022-07-22T01:00:46;5.53;;;4.73;;
6642;SDS011;3357;48.050;7.800;2022-07-22T01:03:12;5.33;;;4.80;;
6642;SDS011;3357;48.050;7.800;2022-07-22T01:05:39;5.30;;;4.17;;
6642;SDS011;3357;48.050;7.800;2022-07-22T01:08:05;4.93;;;4.53;;
6642;SDS011;3357;48.050;7.800;2022-07-22T01:10:31;5.33;;;4.80;;
6642;SDS011;3357;48.050;7.800;2022-07-22T01:12:56;4.77;;;4.37;;
6642;SDS011;3357;48.050;7.800;2022-07-22T01:15:21;4.50;;;4.10;;
6642;SDS011;3357;48.050;7.800;2022-07-22T01:17:50;5.60;;;5.10;;
6642;SDS011;3357;48.050;7.800;2022-07-22T01:20:15;4.17;;;3.87;;
6642;SDS011;3357;48.050;7.800;2022-07-22T01:22:40;4.60;;;4.20;;
6642;SDS011;3357;48.050;7.800;2022-07-22T01:25:06;7.87;;;4.90;;
6642;SDS011;3357;48.050;7.800;2022-07-22T01:27:31;5.53;;;4.90;;
6642;SDS011;3357;48.050;7.800;2022-07-22T01:29:57;4.80;;;4.40;;
6642;SDS011;3357;48.050;7.800;2022-07-22T01:32:22;5.00;;;4.50;;
6642;SDS011;3357;48.050;7.800;2022-07-22T01:34:48;5.60;;;5.10;;
6642;SDS011;3357;48.050;7.800;2022-07-22T01:37:18;6.10;;;5.60;;
6642;SDS011;3357;48.050;7.800;2022-07-22T01:39:44;6.80;;;5.23;;
6642;SDS011;3357;48.050;7.800;2022-07-22T01:42:09;7.57;;;4.90;;
6642;SDS011;3357;48.050;7.800;2022-07-22T01:44:34;7.90;;;5.10;;
6642;SDS011;3357;48.050;7.800;2022-07-22T01:46:59;7.70;;;5.30;;
6642;SDS011;3357;48.050;7.800;2022-07-22T01:49:25;8.10;;;5.17;;
6642;SDS011;3357;48.050;7.800;2022-07-22T01:51:51;5.27;;;4.77;;
6642;SDS011;3357;48.050;7.800;2022-07-22T01:54:16;6.30;;;5.00;;
6642;SDS011;3357;48.050;7.800;2022-07-22T01:56:41;6.83;;;5.20;;
6642;SDS011;3357;48.050;7.800;2022-07-22T01:59:07;5.93;;;5.40;;
6642;SDS011;3357;48.050;7.800;2022-07-22T02:01:34;5.47;;;4.97;;
6642;SDS011;3357;48.050;7.800;2022-07-22T02:04:00;6.70;;;5.47;;
6642;SDS011;3357;48.050;7.800;2022-07-22T02:06:25;5.80;;;5.07;;
6642;SDS011;3357;48.050;7.800;2022-07-22T02:08:50;5.30;;;4.80;;
6642;SDS011;3357;48.050;7.800;2022-07-22T02:11:16;6.13;;;5.50;;
6642;SDS011;3357;48.050;7.800;2022-07-22T02:13:43;10.93;;;4.70;;
6642;SDS011;3357;48.050;7.800;2022-07-22T02:16:08;5.20;;;4.80;;
6642;SDS011;3357;48.050;7.800;2022-07-22T02:18:33;5.07;;;4.67;;
6642;SDS011;3357;48.050;7.800;2022-07-22T02:20:59;6.60;;;4.90;;
6642;SDS011;3357;48.050;7.800;2022-07-22T02:23:25;5.03;;;4.60;;
6642;SDS011;3357;48.050;7.800;2022-07-22T02:25:50;5.23;;;4.83;;
6642;SDS011;3357;48.050;7.800;2022-07-22T02:28:16;6.90;;;6.17;;
6642;SDS011;3357;48.050;7.800;2022-07-22T02:30:41;7.20;;;5.07;;
6642;SDS011;3357;48.050;7.800;2022-07-22T02:33:06;7.53;;;5.40;;
6642;SDS011;3357;48.050;7.800;2022-07-22T02:35:32;5.40;;;4.33;;
6642;SDS011;3357;48.050;7.800;2022-07-22T02:37:57;6.67;;;5.00;;
6642;SDS011;3357;48.050;7.800;2022-07-22T02:40:23;5.13;;;4.73;;
6642;SDS011;3357;48.050;7.800;2022-07-22T02:42:48;11.53;;;5.20;;
6642;SDS011;3357;48.050;7.800;2022-07-22T02:45:13;5.70;;;4.97;;
6642;SDS011;3357;48.050;7.800;2022-07-22T02:47:49;5.63;;;5.13;;
6642;SDS011;3357;48.050;7.800;2022-07-22T02:50:16;8.13;;;4.60;;
6642;SDS011;3357;48.050;7.800;2022-07-22T02:52:42;4.87;;;4.50;;
6642;SDS011;3357;48.050;7.800;2022-07-22T02:55:08;5.07;;;4.67;;
6642;SDS011;3357;48.050;7.800;2022-07-22T02:57:33;7.37;;;5.07;;
6642;SDS011;3357;48.050;7.800;2022-07-22T02:59:59;8.63;;;5.40;;
6642;SDS011;3357;48.050;7.800;2022-07-22T03:02:24;10.30;;;5.00;;
6642;SDS011;3357;48.050;7.800;2022-07-22T03:04:49;7.33;;;5.77;;
6642;SDS011;3357;48.050;7.800;2022-07-22T03:07:15;6.00;;;5.40;;
6642;SDS011;3357;48.050;7.800;2022-07-22T03:09:40;6.90;;;4.80;;
6642;SDS011;3357;48.050;7.800;2022-07-22T03:12:05;7.13;;;5.10;;
6642;SDS011;3357;48.050;7.800;2022-07-22T03:14:31;5.60;;;5.10;;
6642;SDS011;3357;48.050;7.800;2022-07-22T03:16:56;5.33;;;4.93;;
6642;SDS011;3357;48.050;7.800;2022-07-22T03:19:22;7.80;;;4.87;;
6642;SDS011;3357;48.050;7.800;2022-07-22T03:21:47;5.27;;;4.77;;
6642;SDS011;3357;48.050;7.800;2022-07-22T03:24:13;5.70;;;5.20;;
6642;SDS011;3357;48.050;7.800;2022-07-22T03:26:39;5.07;;;4.70;;
6642;SDS011;3357;48.050;7.800;2022-07-22T03:29:04;7.70;;;4.87;;
6642;SDS011;3357;48.050;7.800;2022-07-22T03:31:29;5.80;;;5.20;;
6642;SDS011;3357;48.050;7.800;2022-07-22T03:33:54;10.53;;;5.40;;
6642;SDS011;3357;48.050;7.800;2022-07-22T03:36:20;5.53;;;5.00;;
6642;SDS011;3357;48.050;7.800;2022-07-22T03:38:45;5.53;;;5.03;;
6642;SDS011;3357;48.050;7.800;2022-07-22T03:41:10;7.03;;;4.97;;
6642;SDS011;3357;48.050;7.800;2022-07-22T03:43:36;5.60;;;5.20;;
6642;SDS011;3357;48.050;7.800;2022-07-22T03:46:01;4.80;;;4.40;;
6642;SDS011;3357;48.050;7.800;2022-07-22T03:48:26;6.73;;;5.17;;
6642;SDS011;3357;48.050;7.800;2022-07-22T03:50:52;5.70;;;4.87;;
6642;SDS011;3357;48.050;7.800;2022-07-22T03:53:17;5.83;;;5.10;;
6642;SDS011;3357;48.050;7.800;2022-07-22T03:55:46;8.60;;;5.00;;
6642;SDS011;3357;48.050;7.800;2022-07-22T03:58:11;5.97;;;5.47;;
6642;SDS011;3357;48.050;7.800;2022-07-22T04:00:38;7.20;;;6.50;;
6642;SDS011;3357;48.050;7.800;2022-07-22T04:03:03;8.63;;;6.40;;
6642;SDS011;3357;48.050;7.800;2022-07-22T04:05:29;7.27;;;6.20;;
6642;SDS011;3357;48.050;7.800;2022-07-22T04:07:54;9.60;;;7.20;;
6642;SDS011;3357;48.050;7.800;2022-07-22T04:10:19;10.03;;;7.53;;
6642;SDS011;3357;48.050;7.800;2022-07-22T04:12:45;24.93;;;7.27;;
6642;SDS011;3357;48.050;7.800;2022-07-22T04:15:11;9.70;;;7.87;;
6642;SDS011;3357;48.050;7.800;2022-07-22T04:17:36;10.50;;;7.60;;
6642;SDS011;3357;48.050;7.800;2022-07-22T04:20:02;10.10;;;7.90;;
6642;SDS011;3357;48.050;7.800;2022-07-22T04:22:27;9.47;;;8.50;;
6642;SDS011;3357;48.050;7.800;2022-07-22T04:24:53;13.03;;;9.07;;
6642;SDS011;3357;48.050;7.800;2022-07-22T04:27:19;11.03;;;8.57;;
6642;SDS011;3357;48.050;7.800;2022-07-22T04:29:44;10.43;;;9.27;;
6642;SDS011;3357;48.050;7.800;2022-07-22T04:32:10;17.50;;;11.43;;
6642;SDS011;3357;48.050;7.800;2022-07-22T04:34:35;17.77;;;8.90;;
6642;SDS011;3357;48.050;7.800;2022-07-22T04:37:00;10.97;;;9.10;;
6642;SDS011;3357;48.050;7.800;2022-07-22T04:39:26;15.20;;;9.40;;
6642;SDS011;3357;48.050;7.800;2022-07-22T04:41:51;11.97;;;10.10;;
6642;SDS011;3357;48.050;7.800;2022-07-22T04:44:17;11.57;;;9.37;;
6642;SDS011;3357;48.050;7.800;2022-07-22T04:46:43;13.17;;;10.20;;
6642;SDS011;3357;48.050;7.800;2022-07-22T04:49:08;15.40;;;10.30;;
6642;SDS011;3357;48.050;7.800;2022-07-22T04:51:33;13.40;;;9.87;;
6642;SDS011;3357;48.050;7.800;2022-07-22T04:53:58;10.80;;;9.30;;
6642;SDS011;3357;48.050;7.800;2022-07-22T04:56:24;13.57;;;10.60;;
6642;SDS011;3357;48.050;7.800;2022-07-22T04:58:49;15.87;;;10.53;;
6642;SDS011;3357;48.050;7.800;2022-07-22T05:01:16;13.00;;;10.63;;
6642;SDS011;3357;48.050;7.800;2022-07-22T05:03:41;12.57;;;9.63;;
6642;SDS011;3357;48.050;7.800;2022-07-22T05:06:07;12.17;;;9.60;;
6642;SDS011;3357;48.050;7.800;2022-07-22T05:08:32;22.67;;;11.27;;
6642;SDS011;3357;48.050;7.800;2022-07-22T05:10:58;14.47;;;10.23;;
6642;SDS011;3357;48.050;7.800;2022-07-22T05:13:23;14.13;;;10.13;;
6642;SDS011;3357;48.050;7.800;2022-07-22T05:15:50;14.57;;;10.77;;
6642;SDS011;3357;48.050;7.800;2022-07-22T05:18:15;13.00;;;11.70;;
6642;SDS011;3357;48.050;7.800;2022-07-22T05:20:41;19.93;;;10.97;;
6642;SDS011;3357;48.050;7.800;2022-07-22T05:23:06;14.57;;;10.40;;
6642;SDS011;3357;48.050;7.800;2022-07-22T05:25:32;15.90;;;11.43;;
6642;SDS011;3357;48.050;7.800;2022-07-22T05:28:01;16.20;;;11.73;;
6642;SDS011;3357;48.050;7.800;2022-07-22T05:30:26;16.63;;;12.37;;
6642;SDS011;3357;48.050;7.800;2022-07-22T05:32:52;14.57;;;11.20;;
6642;SDS011;3357;48.050;7.800;2022-07-22T05:35:17;15.30;;;12.27;;
6642;SDS011;3357;48.050;7.800;2022-07-22T05:37:43;16.53;;;12.10;;
6642;SDS011;3357;48.050;7.800;2022-07-22T05:40:08;17.17;;;12.40;;
6642;SDS011;3357;48.050;7.800;2022-07-22T05:42:35;19.00;;;12.93;;
6642;SDS011;3357;48.050;7.800;2022-07-22T05:45:00;16.20;;;13.13;;
6642;SDS011;3357;48.050;7.800;2022-07-22T05:47:26;17.90;;;12.43;;
6642;SDS011;3357;48.050;7.800;2022-07-22T05:49:51;18.77;;;13.33;;
6642;SDS011;3357;48.050;7.800;2022-07-22T05:52:17;14.63;;;12.57;;
6642;SDS011;3357;48.050;7.800;2022-07-22T05:54:42;20.10;;;11.97;;
6642;SDS011;3357;48.050;7.800;2022-07-22T05:57:08;15.40;;;12.80;;
6642;SDS011;3357;48.050;7.800;2022-07-22T05:59:34;14.70;;;12.23;;
6642;SDS011;3357;48.050;7.800;2022-07-22T06:02:00;13.60;;;11.27;;
6642;SDS011;3357;48.050;7.800;2022-07-22T06:04:25;18.30;;;12.90;;
6642;SDS011;3357;48.050;7.800;2022-07-22T06:06:51;21.80;;;13.63;;
6642;SDS011;3357;48.050;7.800;2022-07-22T06:09:17;14.73;;;12.53;;
6642;SDS011;3357;48.050;7.800;2022-07-22T06:11:42;14.00;;;11.60;;
6642;SDS011;3357;48.050;7.800;2022-07-22T06:14:08;16.33;;;12.93;;
6642;SDS011;3357;48.050;7.800;2022-07-22T06:16:33;14.50;;;12.47;;
6642;SDS011;3357;48.050;7.800;2022-07-22T06:19:00;21.40;;;13.63;;
6642;SDS011;3357;48.050;7.800;2022-07-22T06:21:25;16.53;;;11.80;;
6642;SDS011;3357;48.050;7.800;2022-07-22T06:23:51;15.00;;;12.50;;
6642;SDS011;3357;48.050;7.800;2022-07-22T06:26:16;19.17;;;13.97;;
6642;SDS011;3357;48.050;7.800;2022-07-22T06:28:41;16.30;;;12.40;;
6642;SDS011;3357;48.050;7.800;2022-07-22T06:31:06;20.60;;;12.93;;
6642;SDS011;3357;48.050;7.800;2022-07-22T06:33:32;16.83;;;12.93;;
6642;SDS011;3357;48.050;7.800;2022-07-22T06:35:58;17.50;;;13.97;;
6642;SDS011;3357;48.050;7.800;2022-07-22T06:38:23;20.73;;;13.47;;
6642;SDS011;3357;48.050;7.800;2022-07-22T06:40:49;15.20;;;13.00;;
6642;SDS011;3357;48.050;7.800;2022-07-22T06:43:14;19.37;;;12.60;;
6642;SDS011;3357;48.050;7.800;2022-07-22T06:45:39;14.37;;;11.53;;
6642;SDS011;3357;48.050;7.800;2022-07-22T06:48:07;13.37;;;11.53;;
6642;SDS011;3357;48.050;7.800;2022-07-22T06:50:41;13.17;;;11.33;;
6642;SDS011;3357;48.050;7.800;2022-07-22T06:53:07;17.80;;;12.90;;
6642;SDS011;3357;48.050;7.800;2022-07-22T06:55:32;18.13;;;12.43;;
6642;SDS011;3357;48.050;7.800;2022-07-22T06:57:59;16.40;;;10.60;;
6642;SDS011;3357;48.050;7.800;2022-07-22T07:00:24;15.57;;;11.03;;
6642;SDS011;3357;48.050;7.800;2022-07-22T07:02:50;15.07;;;9.80;;
6642;SDS011;3357;48.050;7.800;2022-07-22T07:05:15;15.37;;;11.67;;
6642;SDS011;3357;48.050;7.800;2022-07-22T07:07:41;18.93;;;11.90;;
6642;SDS011;3357;48.050;7.800;2022-07-22T07:10:06;13.50;;;11.03;;
6642;SDS011;3357;48.050;7.800;2022-07-22T07:15:09;13.47;;;11.93;;
6642;SDS011;3357;48.050;7.800;2022-07-22T07:17:37;13.80;;;11.70;;
6642;SDS011;3357;48.050;7.800;2022-07-22T07:20:03;15.87;;;11.60;;
6642;SDS011;3357;48.050;7.800;2022-07-22T07:22:33;15.73;;;12.13;;
6642;SDS011;3357;48.050;7.800;2022-07-22T07:25:06;17.43;;;11.80;;
6642;SDS011;3357;48.050;7.800;2022-07-22T07:27:35;17.07;;;12.67;;
6642;SDS011;3357;48.050;7.800;2022-07-22T07:30:01;15.70;;;11.77;;
6642;SDS011;3357;48.050;7.800;2022-07-22T07:32:27;13.30;;;11.60;;
6642;SDS011;3357;48.050;7.800;2022-07-22T07:34:53;17.97;;;12.80;;
6642;SDS011;3357;48.050;7.800;2022-07-22T07:37:18;11.87;;;10.60;;
6642;SDS011;3357;48.050;7.800;2022-07-22T07:39:43;17.43;;;11.23;;
6642;SDS011;3357;48.050;7.800;2022-07-22T07:42:09;13.67;;;10.67;;
6642;SDS011;3357;48.050;7.800;2022-07-22T07:44:35;14.77;;;11.07;;
6642;SDS011;3357;48.050;7.800;2022-07-22T07:47:01;10.77;;;9.40;;
6642;SDS011;3357;48.050;7.800;2022-07-22T07:49:26;18.93;;;9.73;;
6642;SDS011;3357;48.050;7.800;2022-07-22T07:51:53;15.93;;;12.00;;
6642;SDS011;3357;48.050;7.800;2022-07-22T07:54:18;11.97;;;10.47;;
6642;SDS011;3357;48.050;7.800;2022-07-22T07:56:52;13.67;;;10.80;;
6642;SDS011;3357;48.050;7.800;2022-07-22T07:59:18;18.53;;;9.43;;
6642;SDS011;3357;48.050;7.800;2022-07-22T08:01:44;12.83;;;10.17;;
6642;SDS011;3357;48.050;7.800;2022-07-22T08:04:10;10.40;;;9.20;;
6642;SDS011;3357;48.050;7.800;2022-07-22T08:06:38;12.90;;;9.70;;
6642;SDS011;3357;48.050;7.800;2022-07-22T08:09:04;15.90;;;10.50;;
6642;SDS011;3357;48.050;7.800;2022-07-22T08:11:29;13.37;;;10.20;;
6642;SDS011;3357;48.050;7.800;2022-07-22T08:13:55;15.10;;;9.30;;
6642;SDS011;3357;48.050;7.800;2022-07-22T08:16:22;14.70;;;10.23;;
6642;SDS011;3357;48.050;7.800;2022-07-22T08:18:49;11.43;;;9.97;;
6642;SDS011;3357;48.050;7.800;2022-07-22T08:21:22;12.23;;;9.77;;
6642;SDS011;3357;48.050;7.800;2022-07-22T08:23:47;15.07;;;9.93;;
6642;SDS011;3357;48.050;7.800;2022-07-22T08:28:42;20.30;;;9.93;;
6642;SDS011;3357;48.050;7.800;2022-07-22T08:31:08;17.20;;;9.90;;
6642;SDS011;3357;48.050;7.800;2022-07-22T08:33:40;9.97;;;8.90;;
6642;SDS011;3357;48.050;7.800;2022-07-22T08:36:11;13.60;;;9.00;;
6642;SDS011;3357;48.050;7.800;2022-07-22T08:38:37;11.77;;;8.87;;
6642;SDS011;3357;48.050;7.800;2022-07-22T08:41:04;10.17;;;8.50;;
6642;SDS011;3357;48.050;7.800;2022-07-22T08:43:30;16.80;;;7.70;;
6642;SDS011;3357;48.050;7.800;2022-07-22T08:45:56;11.53;;;9.10;;
6642;SDS011;3357;48.050;7.800;2022-07-22T08:48:23;16.67;;;8.83;;
6642;SDS011;3357;48.050;7.800;2022-07-22T08:50:48;11.93;;;9.47;;
6642;SDS011;3357;48.050;7.800;2022-07-22T08:53:14;11.50;;;10.00;;
6642;SDS011;3357;48.050;7.800;2022-07-22T08:55:43;10.33;;;8.73;;
6642;SDS011;3357;48.050;7.800;2022-07-22T08:58:17;13.03;;;8.97;;
6642;SDS011;3357;48.050;7.800;2022-07-22T09:00:43;14.33;;;9.13;;
6642;SDS011;3357;48.050;7.800;2022-07-22T09:03:23;13.67;;;9.17;;
6642;SDS011;3357;48.050;7.800;2022-07-22T09:08:19;10.73;;;7.87;;
6642;SDS011;3357;48.050;7.800;2022-07-22T09:10:47;10.93;;;8.10;;
6642;SDS011;3357;48.050;7.800;2022-07-22T09:13:14;11.17;;;8.77;;
6642;SDS011;3357;48.050;7.800;2022-07-22T09:15:50;11.27;;;8.67;;
6642;SDS011;3357;48.050;7.800;2022-07-22T09:18:20;9.87;;;8.87;;
6642;SDS011;3357;48.050;7.800;2022-07-22T09:20:47;12.47;;;9.20;;
6642;SDS011;3357;48.050;7.800;2022-07-22T09:23:16;11.60;;;7.63;;
6642;SDS011;3357;48.050;7.800;2022-07-22T09:25:48;12.30;;;8.20;;
6642;SDS011;3357;48.050;7.800;2022-07-22T09:28:18;10.30;;;8.53;;
6642;SDS011;3357;48.050;7.800;2022-07-22T09:30:46;13.50;;;7.60;;
6642;SDS011;3357;48.050;7.800;2022-07-22T09:33:13;11.53;;;8.20;;
6642;SDS011;3357;48.050;7.800;2022-07-22T09:35:39;8.40;;;7.50;;
6642;SDS011;3357;48.050;7.800;2022-07-22T09:40:37;11.97;;;8.20;;
6642;SDS011;3357;48.050;7.800;2022-07-22T09:43:08;8.50;;;6.87;;
6642;SDS011;3357;48.050;7.800;2022-07-22T09:45:44;15.10;;;9.03;;
6642;SDS011;3357;48.050;7.800;2022-07-22T09:48:23;14.00;;;8.57;;
6642;SDS011;3357;48.050;7.800;2022-07-22T09:50:50;9.70;;;8.50;;
6642;SDS011;3357;48.050;7.800;2022-07-22T09:53:20;7.77;;;7.07;;
6642;SDS011;3357;48.050;7.800;2022-07-22T09:55:49;8.13;;;7.30;;
6642;SDS011;3357;48.050;7.800;2022-07-22T09:58:16;9.03;;;8.07;;
6642;SDS011;3357;48.050;7.800;2022-07-22T10:00:42;9.00;;;8.00;;
6642;SDS011;3357;48.050;7.800;2022-07-22T10:03:17;8.10;;;7.23;;
6642;SDS011;3357;48.050;7.800;2022-07-22T10:05:47;7.00;;;6.40;;
6642;SDS011;3357;48.050;7.800;2022-07-22T10:08:14;6.70;;;6.10;;
6642;SDS011;3357;48.050;7.800;2022-07-22T10:13:08;7.33;;;6.50;;
6642;SDS011;3357;48.050;7.800;2022-07-22T10:15:34;14.73;;;6.50;;
6642;SDS011;3357;48.050;7.800;2022-07-22T10:18:01;8.83;;;7.07;;
6642;SDS011;3357;48.050;7.800;2022-07-22T10:20:30;8.33;;;7.23;;
6642;SDS011;3357;48.050;7.800;2022-07-22T10:23:05;14.90;;;7.00;;
6642;SDS011;3357;48.050;7.800;2022-07-22T10:28:27;7.20;;;6.60;;
6642;SDS011;3357;48.050;7.800;2022-07-22T10:30:53;7.70;;;6.90;;
6642;SDS011;3357;48.050;7.800;2022-07-22T10:33:33;6.50;;;6.10;;
6642;SDS011;3357;48.050;7.800;2022-07-22T10:36:00;7.57;;;6.47;;
6642;SDS011;3357;48.050;7.800;2022-07-22T10:38:28;7.20;;;6.50;;
6642;SDS011;3357;48.050;7.800;2022-07-22T10:41:02;13.20;;;7.30;;
6642;SDS011;3357;48.050;7.800;2022-07-22T10:45:56;9.10;;;7.33;;
6642;SDS011;3357;48.050;7.800;2022-07-22T10:51:05;7.93;;;7.30;;
6642;SDS011;3357;48.050;7.800;2022-07-22T10:53:42;7.93;;;7.23;;
6642;SDS011;3357;48.050;7.800;2022-07-22T10:56:18;8.77;;;7.17;;
6642;SDS011;3357;48.050;7.800;2022-07-22T11:01:20;8.00;;;7.30;;
6642;SDS011;3357;48.050;7.800;2022-07-22T11:03:55;8.33;;;7.07;;
6642;SDS011;3357;48.050;7.800;2022-07-22T11:09:02;7.50;;;6.80;;
6642;SDS011;3357;48.050;7.800;2022-07-22T11:11:35;7.20;;;6.40;;
6642;SDS011;3357;48.050;7.800;2022-07-22T11:14:14;7.80;;;7.00;;
6642;SDS011;3357;48.050;7.800;2022-07-22T11:17:05;8.73;;;7.93;;
6642;SDS011;3357;48.050;7.800;2022-07-22T11:19:32;7.97;;;6.23;;
6642;SDS011;3357;48.050;7.800;2022-07-22T11:21:58;8.30;;;7.40;;
6642;SDS011;3357;48.050;7.800;2022-07-22T11:24:29;7.63;;;6.77;;
6642;SDS011;3357;48.050;7.800;2022-07-22T11:26:55;7.77;;;6.97;;
6642;SDS011;3357;48.050;7.800;2022-07-22T11:29:28;7.13;;;6.43;;
6642;SDS011;3357;48.050;7.800;2022-07-22T11:32:01;8.47;;;7.67;;
6642;SDS011;3357;48.050;7.800;2022-07-22T11:34:32;8.47;;;7.10;;
6642;SDS011;3357;48.050;7.800;2022-07-22T11:36:57;7.70;;;6.83;;
6642;SDS011;3357;48.050;7.800;2022-07-22T11:39:25;8.37;;;7.57;;
6642;SDS011;3357;48.050;7.800;2022-07-22T11:41:56;7.87;;;7.17;;
6642;SDS011;3357;48.050;7.800;2022-07-22T11:44:25;7.23;;;6.63;;
6642;SDS011;3357;48.050;7.800;2022-07-22T11:46:51;8.20;;;6.63;;
6642;SDS011;3357;48.050;7.800;2022-07-22T11:51:50;7.50;;;6.80;;
6642;SDS011;3357;48.050;7.800;2022-07-22T11:54:15;9.53;;;7.37;;
6642;SDS011;3357;48.050;7.800;2022-07-22T11:56:41;9.20;;;7.23;;
6642;SDS011;3357;48.050;7.800;2022-07-22T11:59:07;8.27;;;7.40;;
6642;SDS011;3357;48.050;7.800;2022-07-22T12:01:35;8.90;;;8.00;;
6642;SDS011;3357;48.050;7.800;2022-07-22T12:04:05;7.80;;;7.10;;
6642;SDS011;3357;48.050;7.800;2022-07-22T12:06:33;12.03;;;7.40;;
6642;SDS011;3357;48.050;7.800;2022-07-22T12:11:32;8.60;;;7.70;;
6642;SDS011;3357;48.050;7.800;2022-07-22T12:14:04;7.50;;;6.70;;
6642;SDS011;3357;48.050;7.800;2022-07-22T12:16:31;7.30;;;6.70;;
6642;SDS011;3357;48.050;7.800;2022-07-22T12:18:58;7.73;;;6.50;;
6642;SDS011;3357;48.050;7.800;2022-07-22T12:21:29;10.00;;;7.37;;
6642;SDS011;3357;48.050;7.800;2022-07-22T12:24:03;7.10;;;6.57;;
6642;SDS011;3357;48.050;7.800;2022-07-22T12:26:51;7.33;;;6.70;;
6642;SDS011;3357;48.050;7.800;2022-07-22T12:31:59;7.30;;;6.60;;
6642;SDS011;3357;48.050;7.800;2022-07-22T12:37:21;8.20;;;7.23;;
6642;SDS011;3357;48.050;7.800;2022-07-22T12:40:00;9.90;;;6.53;;
6642;SDS011;3357;48.050;7.800;2022-07-22T12:42:33;7.53;;;6.30;;
6642;SDS011;3357;48.050;7.800;2022-07-22T12:47:40;7.20;;;6.60;;
6642;SDS011;3357;48.050;7.800;2022-07-22T12:55:30;8.03;;;6.13;;
6642;SDS011;3357;48.050;7.800;2022-07-22T12:57:57;7.00;;;6.30;;
6642;SDS011;3357;48.050;7.800;2022-07-22T13:00:24;7.10;;;6.50;;
6642;SDS011;3357;48.050;7.800;2022-07-22T13:02:51;7.73;;;6.93;;
6642;SDS011;3357;48.050;7.800;2022-07-22T13:05:17;7.80;;;7.00;;
6642;SDS011;3357;48.050;7.800;2022-07-22T13:07:45;7.13;;;6.37;;
6642;SDS011;3357;48.050;7.800;2022-07-22T13:10:11;6.47;;;6.07;;
6642;SDS011;3357;48.050;7.800;2022-07-22T13:12:37;9.27;;;6.77;;
6642;SDS011;3357;48.050;7.800;2022-07-22T13:15:03;7.10;;;6.47;;
6642;SDS011;3357;48.050;7.800;2022-07-22T13:17:29;9.00;;;6.87;;
6642;SDS011;3357;48.050;7.800;2022-07-22T13:19:55;6.80;;;6.30;;
6642;SDS011;3357;48.050;7.800;2022-07-22T13:22:20;7.30;;;6.60;;
6642;SDS011;3357;48.050;7.800;2022-07-22T13:24:49;7.20;;;6.50;;
6642;SDS011;3357;48.050;7.800;2022-07-22T13:27:14;7.40;;;6.57;;
6642;SDS011;3357;48.050;7.800;2022-07-22T13:29:40;7.27;;;6.53;;
6642;SDS011;3357;48.050;7.800;2022-07-22T13:32:06;7.73;;;7.03;;
6642;SDS011;3357;48.050;7.800;2022-07-22T13:34:31;8.20;;;6.63;;
6642;SDS011;3357;48.050;7.800;2022-07-22T13:37:02;7.50;;;6.90;;
6642;SDS011;3357;48.050;7.800;2022-07-22T13:39:27;7.20;;;6.50;;
6642;SDS011;3357;48.050;7.800;2022-07-22T13:41:53;7.70;;;6.53;;
6642;SDS011;3357;48.050;7.800;2022-07-22T13:44:18;6.43;;;5.83;;
6642;SDS011;3357;48.050;7.800;2022-07-22T13:46:45;7.37;;;6.33;;
6642;SDS011;3357;48.050;7.800;2022-07-22T13:49:11;6.97;;;6.20;;
6642;SDS011;3357;48.050;7.800;2022-07-22T14:48:39;7.03;;;6.33;;
6642;SDS011;3357;48.050;7.800;2022-07-22T14:51:06;6.13;;;5.63;;
6642;SDS011;3357;48.050;7.800;2022-07-22T15:03:27;6.10;;;5.60;;
6642;SDS011;3357;48.050;7.800;2022-07-22T15:05:52;9.10;;;5.80;;
6642;SDS011;3357;48.050;7.800;2022-07-22T15:08:20;6.00;;;5.57;;
6642;SDS011;3357;48.050;7.800;2022-07-22T15:10:52;7.70;;;5.60;;
6642;SDS011;3357;48.050;7.800;2022-07-22T15:13:17;6.00;;;5.60;;
6642;SDS011;3357;48.050;7.800;2022-07-22T15:15:45;5.73;;;5.30;;
6642;SDS011;3357;48.050;7.800;2022-07-22T15:18:13;8.47;;;5.57;;
6642;SDS011;3357;48.050;7.800;2022-07-22T15:20:39;6.27;;;5.67;;
6642;SDS011;3357;48.050;7.800;2022-07-22T15:23:05;5.40;;;5.07;;
6642;SDS011;3357;48.050;7.800;2022-07-22T15:25:30;5.33;;;4.93;;
6642;SDS011;3357;48.050;7.800;2022-07-22T15:27:55;5.63;;;5.22;;
6642;SDS011;3357;48.050;7.800;2022-07-22T15:30:21;6.07;;;5.57;;
6642;SDS011;3357;48.050;7.800;2022-07-22T15:32:46;5.95;;;5.40;;
6642;SDS011;3357;48.050;7.800;2022-07-22T15:35:12;8.18;;;5.50;;
6642;SDS011;3357;48.050;7.800;2022-07-22T15:37:37;6.20;;;5.60;;
6642;SDS011;3357;48.050;7.800;2022-07-22T15:40:03;5.20;;;4.90;;
6642;SDS011;3357;48.050;7.800;2022-07-22T15:42:33;6.00;;;5.50;;
6642;SDS011;3357;48.050;7.800;2022-07-22T15:45:00;5.40;;;5.07;;
6642;SDS011;3357;48.050;7.800;2022-07-22T15:47:25;7.33;;;5.70;;
6642;SDS011;3357;48.050;7.800;2022-07-22T15:49:51;7.68;;;5.43;;
6642;SDS011;3357;48.050;7.800;2022-07-22T15:52:17;6.30;;;5.70;;
6642;SDS011;3357;48.050;7.800;2022-07-22T15:54:43;6.87;;;5.40;;
6642;SDS011;3357;48.050;7.800;2022-07-22T15:57:08;6.43;;;5.80;;
6642;SDS011;3357;48.050;7.800;2022-07-22T15:59:58;6.50;;;5.80;;
6642;SDS011;3357;48.050;7.800;2022-07-22T16:02:24;6.13;;;5.00;;
6642;SDS011;3357;48.050;7.800;2022-07-22T16:04:49;7.93;;;6.00;;
6642;SDS011;3357;48.050;7.800;2022-07-22T16:07:15;6.05;;;5.47;;
6642;SDS011;3357;48.050;7.800;2022-07-22T16:09:40;5.90;;;5.38;;
6642;SDS011;3357;48.050;7.800;2022-07-22T16:12:06;5.97;;;5.40;;
6642;SDS011;3357;48.050;7.800;2022-07-22T16:14:32;6.60;;;5.33;;
6642;SDS011;3357;48.050;7.800;2022-07-22T16:16:57;6.10;;;5.33;;
6642;SDS011;3357;48.050;7.800;2022-07-22T16:19:23;6.50;;;5.90;;
6642;SDS011;3357;48.050;7.800;2022-07-22T16:21:48;6.23;;;5.57;;
6642;SDS011;3357;48.050;7.800;2022-07-22T16:24:20;6.20;;;5.70;;
6642;SDS011;3357;48.050;7.800;2022-07-22T16:26:45;11.07;;;5.27;;
6642;SDS011;3357;48.050;7.800;2022-07-22T16:29:10;6.03;;;5.53;;
6642;SDS011;3357;48.050;7.800;2022-07-22T16:31:36;5.80;;;5.30;;
6642;SDS011;3357;48.050;7.800;2022-07-22T16:34:01;8.83;;;5.53;;
6642;SDS011;3357;48.050;7.800;2022-07-22T16:38:58;7.40;;;5.57;;
6642;SDS011;3357;48.050;7.800;2022-07-22T16:41:26;6.00;;;5.43;;
6642;SDS011;3357;48.050;7.800;2022-07-22T16:43:52;5.90;;;5.43;;
6642;SDS011;3357;48.050;7.800;2022-07-22T16:46:17;5.60;;;5.10;;
6642;SDS011;3357;48.050;7.800;2022-07-22T16:48:42;6.00;;;5.40;;
6642;SDS011;3357;48.050;7.800;2022-07-22T16:51:08;6.40;;;5.90;;
6642;SDS011;3357;48.050;7.800;2022-07-22T16:53:33;6.60;;;5.50;;
6642;SDS011;3357;48.050;7.800;2022-07-22T16:56:05;7.17;;;5.60;;
6642;SDS011;3357;48.050;7.800;2022-07-22T16:58:31;6.77;;;5.57;;
6642;SDS011;3357;48.050;7.800;2022-07-22T17:00:57;6.57;;;5.97;;
6642;SDS011;3357;48.050;7.800;2022-07-22T17:03:25;7.20;;;5.30;;